Main page
METAR-TAF:

METAR-TAF

Airports :

Brighton City Airport (Shoreham Airport)

Brighton, England

latitude: 50-50N, longitude: 000-17W, elevation: 2 m

Current weather observation

The report was made 12 minutes ago, at 11:20 UTC
Wind 8 kt from the North/Northeast
Temperature 15°C
Humidity 82%
Pressure 1017 hPa
Visibility 10 km or more
Few clouds at a height of 1500 ft
Broken clouds at a height of 2300 ft

METAR: EGKA 121120Z 02008KT 9999 FEW015 BKN023 15/12 Q1017

Time: 12:32 (11:32 UTC)

Forecast

The report was made 3 hours and 35 minutes ago, at 07:57 UTC
Forecast valid from 12 at 09 UTC to 12 at 18 UTC
Wind 9 kt from the North
Visibility 10 km or more
Scattered clouds at a height of 1200 ft
Broken clouds at a height of 2000 ft
Temporary
from 12 at 09 UTC to 12 at 11 UTC
Broken clouds at a height of 1200 ft
Probability 30% :
Temporary
from 12 at 09 UTC to 12 at 15 UTC
Visibility: 8000 m
light rain showers,

TAF: EGKA 120757Z 1209/1218 01009KT 9999 SCT012 BKN020 TEMPO 1209/1211 BKN012 PROB30 TEMPO 1209/1215 8000 -SHRA

Weather observations and forecasts of more than 4000 airports (METAR and TAF reports).

The available stations are represented by yellow and red dots on the map.

Hover mouse over dot to see the name of the station.

Then click to see weather observations and forecasts.

To change the map : click on the green buttons with a black cross to zoom in, on the green button with a dash to zoom out, or on the green arrows for adjacent maps.


METAR-TAF: